createdAt,value
2019-04-07T00:00:32.972Z,998.27
2019-04-07T00:01:32.961Z,998.25
2019-04-07T00:02:33.083Z,998.24
2019-04-07T00:03:33.311Z,998.22
2019-04-07T00:04:33.041Z,998.25
2019-04-07T00:05:33.369Z,998.23
2019-04-07T00:06:32.873Z,998.20
2019-04-07T00:07:34.531Z,998.25
2019-04-07T00:08:32.959Z,998.25
2019-04-07T00:09:34.410Z,998.25
2019-04-07T00:10:32.805Z,998.25
2019-04-07T00:11:32.789Z,998.23
2019-04-07T00:12:32.775Z,998.26
2019-04-07T00:13:32.772Z,998.25
2019-04-07T00:14:32.943Z,998.24
2019-04-07T00:15:33.272Z,998.25
2019-04-07T00:16:35.739Z,998.24
2019-04-07T00:17:32.687Z,998.26
2019-04-07T00:18:32.670Z,998.25
2019-04-07T00:19:33.882Z,998.21
2019-04-07T00:20:32.640Z,998.24
2019-04-07T00:21:33.163Z,998.23
2019-04-07T00:22:32.599Z,998.22
2019-04-07T00:23:32.930Z,998.22
2019-04-07T00:24:33.182Z,998.23
2019-04-07T00:25:32.550Z,998.24
2019-04-07T00:26:32.534Z,998.23
2019-04-07T00:27:32.515Z,998.25
2019-04-07T00:28:32.562Z,998.23
2019-04-07T00:29:32.599Z,998.27
2019-04-07T00:30:32.468Z,998.25
2019-04-07T00:31:32.451Z,998.26
2019-04-07T00:32:32.791Z,998.22
2019-04-07T00:33:32.418Z,998.21
2019-04-07T00:34:32.403Z,998.19
2019-04-07T00:35:33.568Z,998.19
2019-04-07T00:36:32.879Z,998.21
2019-04-07T00:37:32.752Z,998.18
2019-04-07T00:38:32.558Z,998.20
2019-04-07T00:39:32.356Z,998.15
2019-04-07T00:40:32.313Z,998.21
2019-04-07T00:41:32.282Z,998.23
2019-04-07T00:42:32.612Z,998.22
2019-04-07T00:43:32.248Z,998.19
2019-04-07T00:44:32.786Z,998.22
2019-04-07T00:45:32.214Z,998.22
2019-04-07T00:46:32.286Z,998.25
2019-04-07T00:47:32.313Z,998.21
2019-04-07T00:48:32.163Z,998.30
2019-04-07T00:49:32.297Z,998.23
2019-04-07T00:50:32.667Z,998.22
2019-04-07T00:51:32.109Z,998.24
2019-04-07T00:52:32.675Z,998.26
2019-04-07T00:53:32.081Z,998.26
2019-04-07T00:54:32.657Z,998.22
2019-04-07T00:55:32.180Z,998.21
2019-04-07T00:56:32.022Z,998.24
2019-04-07T00:57:32.004Z,998.20
2019-04-07T00:58:31.987Z,998.20
2019-04-07T00:59:32.050Z,998.20
2019-04-07T01:00:32.414Z,998.23
2019-04-07T01:01:31.938Z,998.22
2019-04-07T01:02:32.266Z,998.21
2019-04-07T01:03:31.905Z,998.20
2019-04-07T01:04:31.959Z,998.19
2019-04-07T01:05:36.706Z,998.21
2019-04-07T01:06:32.027Z,998.16
2019-04-07T01:07:31.834Z,998.19
2019-04-07T01:08:32.583Z,998.18
2019-04-07T01:09:32.007Z,998.20
2019-04-07T01:10:31.782Z,998.18
2019-04-07T01:11:32.095Z,998.18
2019-04-07T01:12:31.745Z,998.23
2019-04-07T01:13:31.995Z,998.20
2019-04-07T01:14:31.716Z,998.18
2019-04-07T01:15:31.696Z,998.19
2019-04-07T01:16:31.675Z,998.23
2019-04-07T01:17:31.824Z,998.21
2019-04-07T01:18:31.800Z,998.21
2019-04-07T01:19:31.629Z,998.21
2019-04-07T01:20:31.756Z,998.23
2019-04-07T01:21:31.594Z,998.23
2019-04-07T01:22:31.887Z,998.22
2019-04-07T01:23:31.559Z,998.20
2019-04-07T01:24:31.540Z,998.19
2019-04-07T01:25:31.538Z,998.25
2019-04-07T01:26:31.825Z,998.19
2019-04-07T01:27:31.488Z,998.24
2019-04-07T01:28:31.687Z,998.22
2019-04-07T01:29:32.075Z,998.19
2019-04-07T01:30:31.567Z,998.25
2019-04-07T01:31:31.418Z,998.24
2019-04-07T01:32:31.426Z,998.22
2019-04-07T01:33:31.480Z,998.22
2019-04-07T01:34:31.554Z,998.27
2019-04-07T01:35:31.917Z,998.29
2019-04-07T01:36:31.673Z,998.26
2019-04-07T01:37:31.637Z,998.24
2019-04-07T01:38:31.298Z,998.26
2019-04-07T01:39:31.517Z,998.25
2019-04-07T01:40:31.260Z,998.25
2019-04-07T01:41:31.753Z,998.23
2019-04-07T01:42:31.225Z,998.23
2019-04-07T01:43:31.770Z,998.23
2019-04-07T01:44:31.196Z,998.22
2019-04-07T01:45:31.817Z,998.23
2019-04-07T01:46:31.720Z,998.22
2019-04-07T01:47:31.139Z,998.21
2019-04-07T01:48:31.458Z,998.20
2019-04-07T01:49:31.351Z,998.18
2019-04-07T01:50:31.335Z,998.17
2019-04-07T01:51:31.106Z,998.14
2019-04-07T01:52:31.606Z,998.15
2019-04-07T01:53:31.031Z,998.12
2019-04-07T01:54:31.015Z,998.10
2019-04-07T01:55:31.091Z,998.12
2019-04-07T01:56:31.191Z,998.12
2019-04-07T01:57:32.331Z,998.10
2019-04-07T01:58:30.946Z,998.15
2019-04-07T01:59:31.055Z,998.11
2019-04-07T02:00:31.624Z,998.16
2019-04-07T02:01:31.330Z,998.11
2019-04-07T02:02:31.109Z,998.11
2019-04-07T02:03:30.902Z,998.15
2019-04-07T02:04:30.876Z,998.14
2019-04-07T02:05:30.976Z,998.12
2019-04-07T02:06:31.117Z,998.15
2019-04-07T02:07:30.911Z,998.15
2019-04-07T02:08:30.868Z,998.18
2019-04-07T02:09:31.439Z,998.14
2019-04-07T02:10:30.737Z,998.16
2019-04-07T02:11:30.911Z,998.12
2019-04-07T02:12:31.350Z,998.13
2019-04-07T02:13:30.687Z,998.11
2019-04-07T02:14:31.251Z,998.08
2019-04-07T02:15:30.647Z,998.09
2019-04-07T02:16:31.286Z,998.10
2019-04-07T02:17:30.618Z,998.09
2019-04-07T02:18:31.317Z,998.09
2019-04-07T02:19:30.591Z,998.11
2019-04-07T02:20:31.170Z,998.10
2019-04-07T02:21:30.552Z,998.11
2019-04-07T02:22:31.215Z,998.14
2019-04-07T02:23:30.506Z,998.12
2019-04-07T02:24:30.885Z,998.15
2019-04-07T02:25:30.469Z,998.09
2019-04-07T02:26:31.004Z,998.17
2019-04-07T02:27:33.496Z,998.13
2019-04-07T02:28:30.817Z,998.17
2019-04-07T02:29:30.398Z,998.16
2019-04-07T02:30:30.952Z,998.16
2019-04-07T02:31:30.364Z,998.17
2019-04-07T02:32:31.261Z,998.17
2019-04-07T02:33:31.029Z,998.15
2019-04-07T02:34:30.310Z,998.19
2019-04-07T02:35:30.295Z,998.18
2019-04-07T02:36:31.724Z,998.17
2019-04-07T02:37:30.987Z,998.17
2019-04-07T02:38:30.250Z,998.17
2019-04-07T02:39:30.227Z,998.17
2019-04-07T02:40:31.167Z,998.20
2019-04-07T02:41:30.560Z,998.15
2019-04-07T02:42:30.468Z,998.16
2019-04-07T02:43:31.014Z,998.14
2019-04-07T02:44:30.217Z,998.13
2019-04-07T02:45:30.349Z,998.13
2019-04-07T02:46:31.282Z,998.13
2019-04-07T02:47:31.150Z,998.16
2019-04-07T02:48:30.075Z,998.12
2019-04-07T02:49:30.276Z,998.17
2019-04-07T02:50:30.217Z,998.11
2019-04-07T02:51:30.020Z,998.14
2019-04-07T02:52:30.852Z,998.15
2019-04-07T02:53:30.854Z,998.12
2019-04-07T02:54:30.267Z,998.12
2019-04-07T02:55:30.141Z,998.11
2019-04-07T02:56:29.921Z,998.08
2019-04-07T02:57:29.903Z,998.16
2019-04-07T02:58:29.890Z,998.13
2019-04-07T02:59:29.866Z,998.10
2019-04-07T03:00:29.847Z,998.13
2019-04-07T03:01:31.052Z,998.12
2019-04-07T03:02:30.332Z,998.13
2019-04-07T03:03:29.793Z,998.10
2019-04-07T03:04:29.779Z,998.10
2019-04-07T03:05:29.789Z,998.12
2019-04-07T03:06:45.360Z,998.15
2019-04-07T03:07:29.728Z,998.11
2019-04-07T03:08:30.231Z,998.13
2019-04-07T03:09:29.974Z,998.11
2019-04-07T03:10:29.668Z,998.11
2019-04-07T03:11:29.654Z,998.11
2019-04-07T03:12:29.634Z,998.14
2019-04-07T03:13:30.291Z,998.16
2019-04-07T03:14:30.195Z,998.10
2019-04-07T03:15:29.579Z,998.12
2019-04-07T03:16:29.559Z,998.11
2019-04-07T03:17:29.834Z,998.11
2019-04-07T03:18:29.524Z,998.11
2019-04-07T03:19:29.892Z,998.13
2019-04-07T03:20:29.673Z,998.10
2019-04-07T03:21:29.473Z,998.14
2019-04-07T03:22:29.452Z,998.14
2019-04-07T03:23:29.439Z,998.13
2019-04-07T03:24:29.415Z,998.15
2019-04-07T03:25:29.409Z,998.12
2019-04-07T03:26:29.441Z,998.12
2019-04-07T03:27:30.244Z,998.16
2019-04-07T03:28:30.378Z,998.17
2019-04-07T03:29:29.333Z,998.17
2019-04-07T03:30:32.581Z,998.13
2019-04-07T03:31:30.109Z,998.13
2019-04-07T03:32:30.438Z,998.15
2019-04-07T03:33:30.777Z,998.14
2019-04-07T03:34:32.641Z,998.13
2019-04-07T03:35:32.833Z,998.17
2019-04-07T03:36:30.403Z,998.17
2019-04-07T03:37:36.296Z,998.17
2019-04-07T03:38:29.300Z,998.18
2019-04-07T03:39:30.115Z,998.15
2019-04-07T03:40:30.183Z,998.16
2019-04-07T03:41:29.236Z,998.17
2019-04-07T03:42:29.810Z,998.16
2019-04-07T03:43:29.152Z,998.20
2019-04-07T03:44:29.231Z,998.19
2019-04-07T03:45:29.038Z,998.20
2019-04-07T03:46:29.017Z,998.21
2019-04-07T03:47:28.996Z,998.21
2019-04-07T03:48:28.981Z,998.18
2019-04-07T03:49:29.553Z,998.18
2019-04-07T03:50:29.574Z,998.20
2019-04-07T03:51:30.007Z,998.21
2019-04-07T03:52:28.914Z,998.19
2019-04-07T03:53:28.893Z,998.19
2019-04-07T03:54:28.883Z,998.21
2019-04-07T03:55:28.855Z,998.21
2019-04-07T03:56:28.835Z,998.21
2019-04-07T03:57:28.818Z,998.20
2019-04-07T03:58:28.805Z,998.23
2019-04-07T03:59:29.018Z,998.19
2019-04-07T04:00:29.156Z,998.23
2019-04-07T04:01:29.747Z,998.21
2019-04-07T04:02:29.334Z,998.23
2019-04-07T04:03:28.790Z,998.24
2019-04-07T04:04:28.703Z,998.22
2019-04-07T04:05:29.597Z,998.21
2019-04-07T04:06:28.655Z,998.24
2019-04-07T04:07:34.556Z,998.25
2019-04-07T04:08:28.808Z,998.28
2019-04-07T04:09:28.623Z,998.25
2019-04-07T04:10:28.945Z,998.26
2019-04-07T04:11:28.719Z,998.29
2019-04-07T04:12:28.549Z,998.25
2019-04-07T04:13:29.132Z,998.26
2019-04-07T04:14:29.477Z,998.27
2019-04-07T04:15:28.487Z,998.28
2019-04-07T04:16:28.623Z,998.23
2019-04-07T04:17:28.489Z,998.26
2019-04-07T04:18:28.740Z,998.24
2019-04-07T04:19:28.788Z,998.27
2019-04-07T04:20:28.398Z,998.29
2019-04-07T04:21:28.862Z,998.27
2019-04-07T04:22:29.299Z,998.27
2019-04-07T04:23:28.548Z,998.27
2019-04-07T04:24:28.445Z,998.30
2019-04-07T04:25:28.304Z,998.30
2019-04-07T04:26:28.973Z,998.30
2019-04-07T04:27:28.299Z,998.33
2019-04-07T04:28:29.093Z,998.32
2019-04-07T04:29:28.231Z,998.33
2019-04-07T04:30:28.217Z,998.33
2019-04-07T04:31:29.490Z,998.37
2019-04-07T04:32:28.751Z,998.33
2019-04-07T04:33:28.168Z,998.35
2019-04-07T04:34:28.458Z,998.38
2019-04-07T04:35:28.124Z,998.38
2019-04-07T04:36:28.103Z,998.38
2019-04-07T04:37:39.942Z,998.39
2019-04-07T04:38:28.381Z,998.40
2019-04-07T04:39:28.047Z,998.41
2019-04-07T04:40:28.182Z,998.45
2019-04-07T04:41:28.009Z,998.49
2019-04-07T04:42:28.882Z,998.44
2019-04-07T04:43:27.977Z,998.46
2019-04-07T04:44:28.425Z,998.47
2019-04-07T04:45:27.947Z,998.48
2019-04-07T04:46:27.918Z,998.50
2019-04-07T04:47:27.901Z,998.48
2019-04-07T04:48:27.947Z,998.51
2019-04-07T04:49:28.818Z,998.48
2019-04-07T04:50:27.849Z,998.49
2019-04-07T04:51:28.179Z,998.46
2019-04-07T04:52:27.844Z,998.48
2019-04-07T04:53:28.991Z,998.50
2019-04-07T04:54:27.890Z,998.51
2019-04-07T04:55:27.751Z,998.49
2019-04-07T04:56:28.789Z,998.51
2019-04-07T04:57:28.344Z,998.49
2019-04-07T04:58:28.836Z,998.51
2019-04-07T04:59:27.931Z,998.49
2019-04-07T05:00:28.488Z,998.50
2019-04-07T05:01:27.647Z,998.50
2019-04-07T05:02:27.738Z,998.52
2019-04-07T05:03:27.608Z,998.54
2019-04-07T05:04:28.125Z,998.56
2019-04-07T05:05:28.063Z,998.54
2019-04-07T05:06:27.782Z,998.52
2019-04-07T05:07:27.530Z,998.54
2019-04-07T05:08:27.513Z,998.54
2019-04-07T05:09:40.032Z,998.57
2019-04-07T05:10:27.621Z,998.57
2019-04-07T05:11:27.454Z,998.57
2019-04-07T05:12:27.483Z,998.61
2019-04-07T05:13:27.418Z,998.60
2019-04-07T05:14:27.555Z,998.58
2019-04-07T05:15:27.548Z,998.58
2019-04-07T05:16:27.619Z,998.60
2019-04-07T05:17:27.523Z,998.65
2019-04-07T05:18:27.755Z,998.59
2019-04-07T05:19:27.309Z,998.63
2019-04-07T05:20:27.292Z,998.64
2019-04-07T05:21:27.376Z,998.66
2019-04-07T05:22:27.960Z,998.68
2019-04-07T05:23:27.244Z,998.72
2019-04-07T05:24:27.406Z,998.67
2019-04-07T05:25:27.395Z,998.72
2019-04-07T05:26:27.176Z,998.73
2019-04-07T05:27:27.678Z,998.71
2019-04-07T05:28:27.729Z,998.74
2019-04-07T05:29:27.121Z,998.73
2019-04-07T05:30:27.101Z,998.73
2019-04-07T05:31:27.096Z,998.75
2019-04-07T05:32:27.068Z,998.80
2019-04-07T05:33:27.772Z,998.78
2019-04-07T05:34:27.029Z,998.79
2019-04-07T05:35:27.545Z,998.81
2019-04-07T05:36:26.993Z,998.86
2019-04-07T05:37:26.972Z,998.86
2019-04-07T05:38:26.956Z,998.88
2019-04-07T05:39:27.236Z,998.89
2019-04-07T05:40:26.918Z,998.87
2019-04-07T05:41:27.202Z,998.92
2019-04-07T05:42:26.881Z,998.93
2019-04-07T05:43:27.376Z,998.93
2019-04-07T05:44:26.864Z,998.94
2019-04-07T05:45:27.057Z,998.93
2019-04-07T05:46:28.324Z,998.93
2019-04-07T05:47:26.793Z,998.96
2019-04-07T05:48:26.777Z,998.98
2019-04-07T05:49:27.125Z,998.98
2019-04-07T05:50:27.484Z,998.98
2019-04-07T05:51:29.940Z,999.00
2019-04-07T05:52:27.252Z,999.01
2019-04-07T05:53:26.690Z,999.02
2019-04-07T05:54:27.463Z,999.03
2019-04-07T05:55:27.134Z,999.04
2019-04-07T05:56:28.359Z,999.06
2019-04-07T05:57:30.885Z,999.09
2019-04-07T05:58:26.827Z,999.09
2019-04-07T05:59:26.570Z,999.10
2019-04-07T06:00:26.553Z,999.14
2019-04-07T06:01:26.750Z,999.12
2019-04-07T06:02:27.295Z,999.12
2019-04-07T06:03:26.498Z,999.15
2019-04-07T06:04:27.046Z,999.17
2019-04-07T06:05:26.510Z,999.16
2019-04-07T06:06:26.905Z,999.18
2019-04-07T06:07:29.614Z,999.21
2019-04-07T06:08:32.622Z,999.14
2019-04-07T06:09:26.487Z,999.18
2019-04-07T06:10:28.703Z,999.16
2019-04-07T06:11:27.001Z,999.20
2019-04-07T06:12:26.334Z,999.20
2019-04-07T06:13:26.320Z,999.18
2019-04-07T06:14:26.810Z,999.22
2019-04-07T06:15:26.292Z,999.21
2019-04-07T06:16:26.757Z,999.27
2019-04-07T06:17:27.448Z,999.25
2019-04-07T06:18:26.230Z,999.27
2019-04-07T06:19:26.220Z,999.29
2019-04-07T06:20:26.291Z,999.30
2019-04-07T06:21:26.225Z,999.28
2019-04-07T06:22:26.160Z,999.28
2019-04-07T06:23:29.486Z,999.26
2019-04-07T06:24:26.861Z,999.28
2019-04-07T06:25:27.220Z,999.27
2019-04-07T06:26:26.522Z,999.24
2019-04-07T06:27:28.683Z,999.22
2019-04-07T06:28:26.763Z,999.19
2019-04-07T06:29:26.460Z,999.22
2019-04-07T06:30:28.105Z,999.21
2019-04-07T06:31:27.080Z,999.21
2019-04-07T06:32:26.677Z,999.22
2019-04-07T06:33:26.434Z,999.21
2019-04-07T06:34:26.533Z,999.23
2019-04-07T06:35:26.056Z,999.26
2019-04-07T06:36:26.782Z,999.21
2019-04-07T06:37:29.294Z,999.22
2019-04-07T06:38:33.060Z,999.22
2019-04-07T06:39:26.637Z,999.23
2019-04-07T06:40:25.853Z,999.25
2019-04-07T06:41:30.136Z,999.28
2019-04-07T06:42:26.668Z,999.27
2019-04-07T06:43:25.853Z,999.29
2019-04-07T06:44:25.786Z,999.29
2019-04-07T06:45:25.766Z,999.30
2019-04-07T06:46:28.509Z,999.31
2019-04-07T06:47:25.972Z,999.34
2019-04-07T06:48:25.720Z,999.37
2019-04-07T06:49:28.429Z,999.36
2019-04-07T06:50:25.868Z,999.36
2019-04-07T06:51:29.208Z,999.40
2019-04-07T06:52:25.886Z,999.38
2019-04-07T06:53:25.899Z,999.44
2019-04-07T06:54:25.622Z,999.42
2019-04-07T06:55:28.005Z,999.56
2019-04-07T06:56:25.979Z,999.64
2019-04-07T06:57:25.574Z,999.77
2019-04-07T06:58:25.619Z,999.73
2019-04-07T06:59:26.166Z,999.72
2019-04-07T07:00:25.866Z,999.79
2019-04-07T07:01:26.590Z,999.83
2019-04-07T07:02:29.057Z,999.86
2019-04-07T07:03:25.496Z,999.84
2019-04-07T07:04:25.499Z,999.87
2019-04-07T07:05:25.471Z,999.92
2019-04-07T07:06:26.727Z,999.96
2019-04-07T07:07:26.002Z,999.96
2019-04-07T07:08:26.753Z,999.96
2019-04-07T07:09:26.466Z,999.96
2019-04-07T07:10:29.838Z,1000.02
2019-04-07T07:11:29.316Z,1000.07
2019-04-07T07:12:32.274Z,1000.04
2019-04-07T07:13:29.930Z,1000.08
2019-04-07T07:14:34.773Z,1000.13
2019-04-07T07:15:25.617Z,1000.12
2019-04-07T07:16:26.096Z,1000.15
2019-04-07T07:17:25.721Z,1000.13
2019-04-07T07:18:25.486Z,1000.15
2019-04-07T07:19:27.418Z,1000.17
2019-04-07T07:20:28.796Z,1000.18
2019-04-07T07:21:25.333Z,1000.14
2019-04-07T07:22:25.753Z,1000.20
2019-04-07T07:23:25.342Z,1000.22
2019-04-07T07:24:26.528Z,1000.21
2019-04-07T07:25:26.609Z,1000.26
2019-04-07T07:26:25.386Z,1000.27
2019-04-07T07:27:25.877Z,1000.28
2019-04-07T07:28:25.295Z,1000.31
2019-04-07T07:29:26.679Z,1000.34
2019-04-07T07:30:26.002Z,1000.38
2019-04-07T07:31:26.349Z,1000.39
2019-04-07T07:32:25.925Z,1000.37
2019-04-07T07:33:25.270Z,1000.41
2019-04-07T07:34:25.254Z,1000.39
2019-04-07T07:35:25.613Z,1000.43
2019-04-07T07:36:25.247Z,1000.38
2019-04-07T07:37:26.216Z,1000.44
2019-04-07T07:38:27.728Z,1000.42
2019-04-07T07:39:25.238Z,1000.48
2019-04-07T07:40:25.447Z,1000.47
2019-04-07T07:41:25.431Z,1000.49
2019-04-07T07:42:25.711Z,1000.53
2019-04-07T07:43:27.974Z,1000.53
2019-04-07T07:44:25.222Z,1000.50
2019-04-07T07:45:25.221Z,1000.49
2019-04-07T07:46:25.219Z,1000.54
2019-04-07T07:47:25.420Z,1000.54
2019-04-07T07:48:27.961Z,1000.58
2019-04-07T07:49:25.817Z,1000.56
2019-04-07T07:50:25.404Z,1000.54
2019-04-07T07:51:25.712Z,1000.55
2019-04-07T07:52:25.507Z,1000.62
2019-04-07T07:53:28.131Z,1000.56
2019-04-07T07:54:27.837Z,1000.57
2019-04-07T07:55:25.320Z,1000.65
2019-04-07T07:56:25.599Z,1000.66
2019-04-07T07:57:25.196Z,1000.64
2019-04-07T07:58:27.919Z,1000.64
2019-04-07T07:59:25.201Z,1000.60
2019-04-07T08:00:25.695Z,1000.65
2019-04-07T08:01:25.673Z,1000.71
2019-04-07T08:02:25.201Z,1000.71
2019-04-07T08:03:25.189Z,1000.72
2019-04-07T08:04:26.757Z,1000.78
2019-04-07T08:05:29.831Z,1000.77
2019-04-07T08:06:25.194Z,1000.76
2019-04-07T08:07:25.945Z,1000.82
2019-04-07T08:08:25.417Z,1000.82
2019-04-07T08:09:26.321Z,1000.82
2019-04-07T08:10:26.647Z,1000.82
2019-04-07T08:11:25.189Z,1000.81
2019-04-07T08:12:25.536Z,1000.84
2019-04-07T08:13:25.818Z,1000.87
2019-04-07T08:14:25.982Z,1000.89
2019-04-07T08:15:29.685Z,1000.92
2019-04-07T08:16:29.352Z,1000.91
2019-04-07T08:17:25.914Z,1000.88
2019-04-07T08:18:25.189Z,1000.93
2019-04-07T08:19:29.292Z,1000.92
2019-04-07T08:20:25.190Z,1000.95
2019-04-07T08:21:25.828Z,1000.93
2019-04-07T08:22:30.668Z,1000.96
2019-04-07T08:23:25.356Z,1001.00
2019-04-07T08:24:25.190Z,1001.01
2019-04-07T08:25:25.830Z,1001.03
2019-04-07T08:26:26.028Z,1001.00
2019-04-07T08:27:29.213Z,1000.98
2019-04-07T08:28:25.404Z,1001.00
2019-04-07T08:29:25.787Z,1000.99
2019-04-07T08:30:26.053Z,1000.95
2019-04-07T08:31:25.187Z,1001.03
2019-04-07T08:32:28.050Z,1001.02
2019-04-07T08:33:28.764Z,1000.99
2019-04-07T08:34:25.521Z,1000.96
2019-04-07T08:35:25.194Z,1000.99
2019-04-07T08:36:25.892Z,1000.98
2019-04-07T08:37:25.227Z,1001.00
2019-04-07T08:38:27.137Z,1001.01
2019-04-07T08:39:29.060Z,1000.99
2019-04-07T08:40:25.313Z,1001.08
2019-04-07T08:41:25.589Z,1000.98
2019-04-07T08:42:25.313Z,1001.04
2019-04-07T08:43:25.193Z,1001.06
2019-04-07T08:44:27.511Z,1001.04
2019-04-07T08:45:26.764Z,1001.17
2019-04-07T08:46:25.195Z,1001.09
2019-04-07T08:47:25.816Z,1001.12
2019-04-07T08:48:25.620Z,1001.06
2019-04-07T08:49:25.618Z,1001.10
2019-04-07T08:50:27.715Z,1001.13
2019-04-07T08:51:29.348Z,1001.08
2019-04-07T08:52:25.947Z,1001.11
2019-04-07T08:53:25.209Z,1001.13
2019-04-07T08:54:25.201Z,1001.16
2019-04-07T08:55:25.651Z,1001.19
2019-04-07T08:56:26.632Z,1001.13
2019-04-07T08:57:27.230Z,1001.11
2019-04-07T08:58:28.753Z,1001.09
2019-04-07T08:59:25.899Z,1001.10
2019-04-07T09:00:26.094Z,1001.13
2019-04-07T09:01:28.640Z,1001.06
2019-04-07T09:02:28.288Z,1001.12
2019-04-07T09:03:25.194Z,1001.10
2019-04-07T09:04:25.279Z,1001.09
2019-04-07T09:05:28.821Z,1001.10
2019-04-07T09:06:27.415Z,1001.10
2019-04-07T09:07:25.201Z,1001.10
2019-04-07T09:08:25.195Z,1001.11
2019-04-07T09:09:32.548Z,1001.09
2019-04-07T09:10:25.893Z,1001.11
2019-04-07T09:11:25.188Z,1001.16
2019-04-07T09:12:28.921Z,1001.12
2019-04-07T09:13:25.191Z,1001.10
2019-04-07T09:14:25.190Z,1001.10
2019-04-07T09:15:25.965Z,1001.08
2019-04-07T09:16:25.185Z,1001.10
2019-04-07T09:17:32.909Z,1001.14
2019-04-07T09:18:25.183Z,1001.17
2019-04-07T09:19:25.270Z,1001.21
2019-04-07T09:20:25.622Z,1001.14
2019-04-07T09:21:37.998Z,1001.11
2019-04-07T09:22:25.322Z,1001.06
2019-04-07T09:23:27.026Z,1001.07
2019-04-07T09:24:29.972Z,1000.98
2019-04-07T09:25:25.167Z,1000.98
2019-04-07T09:26:25.165Z,1000.97
2019-04-07T09:27:25.774Z,1001.00
2019-04-07T09:28:25.158Z,1000.93
2019-04-07T09:29:27.434Z,1000.90
2019-04-07T09:30:25.166Z,1000.92
2019-04-07T09:31:25.154Z,1000.86
2019-04-07T09:32:25.372Z,1000.87
2019-04-07T09:33:25.147Z,1000.71
2019-04-07T09:34:25.161Z,1000.54
2019-04-07T09:35:26.357Z,1000.48
2019-04-07T09:36:25.146Z,1000.46
2019-04-07T09:37:25.970Z,1000.49
2019-04-07T09:38:27.128Z,1000.45
2019-04-07T09:39:25.136Z,1000.49
2019-04-07T09:40:25.323Z,1000.48
2019-04-07T09:41:27.823Z,1000.49
2019-04-07T09:42:25.880Z,1000.46
2019-04-07T09:43:25.125Z,1000.44
2019-04-07T09:44:25.417Z,1000.46
2019-04-07T09:45:25.440Z,1000.43
2019-04-07T09:46:25.112Z,1000.43
2019-04-07T09:47:25.907Z,1000.47
2019-04-07T09:48:25.110Z,1000.50
2019-04-07T09:49:25.669Z,1000.50
2019-04-07T09:50:27.944Z,1000.48
2019-04-07T09:51:25.438Z,1000.45
2019-04-07T09:52:25.094Z,1000.46
2019-04-07T09:53:25.087Z,1000.42
2019-04-07T09:54:25.197Z,1000.44
2019-04-07T09:55:26.710Z,1000.39
2019-04-07T09:56:27.224Z,1000.40
2019-04-07T09:57:25.897Z,1000.42
2019-04-07T09:58:25.219Z,1000.45
2019-04-07T09:59:25.058Z,1000.44
2019-04-07T10:00:25.203Z,1000.39
2019-04-07T10:01:27.639Z,1000.40
2019-04-07T10:02:25.111Z,1000.39
2019-04-07T10:03:25.029Z,1000.42
2019-04-07T10:04:25.650Z,1000.38
2019-04-07T10:05:25.014Z,1000.38
2019-04-07T10:06:25.017Z,1000.39
2019-04-07T10:07:25.145Z,1000.41
2019-04-07T10:08:25.015Z,1000.39
2019-04-07T10:09:25.641Z,1000.36
2019-04-07T10:10:24.983Z,1000.40
2019-04-07T10:11:25.223Z,1000.41
2019-04-07T10:12:27.727Z,1000.38
2019-04-07T10:13:24.976Z,1000.41
2019-04-07T10:14:25.788Z,1000.36
2019-04-07T10:15:25.599Z,1000.36
2019-04-07T10:16:25.755Z,1000.35
2019-04-07T10:17:26.040Z,1000.34
2019-04-07T10:18:25.222Z,1000.34
2019-04-07T10:19:25.563Z,1000.35
2019-04-07T10:20:25.801Z,1000.33
2019-04-07T10:21:25.331Z,1000.32
2019-04-07T10:22:25.561Z,1000.36
2019-04-07T10:23:25.353Z,1000.29
2019-04-07T10:24:24.900Z,1000.39
2019-04-07T10:25:26.915Z,1000.29
2019-04-07T10:26:25.607Z,1000.34
2019-04-07T10:27:24.881Z,1000.33
2019-04-07T10:28:25.530Z,1000.34
2019-04-07T10:29:25.392Z,1000.38
2019-04-07T10:30:24.852Z,1000.36
2019-04-07T10:31:24.846Z,1000.35
2019-04-07T10:32:26.786Z,1000.33
2019-04-07T10:33:24.835Z,1000.32
2019-04-07T10:34:24.940Z,1000.35
2019-04-07T10:35:24.833Z,1000.33
2019-04-07T10:36:25.394Z,1000.29
2019-04-07T10:37:25.455Z,1000.35
2019-04-07T10:38:24.835Z,1000.39
2019-04-07T10:39:25.064Z,1000.39
2019-04-07T10:40:25.460Z,1000.35
2019-04-07T10:41:24.783Z,1000.34
2019-04-07T10:42:24.769Z,1000.29
2019-04-07T10:43:25.039Z,1000.31
2019-04-07T10:44:25.000Z,1000.32
2019-04-07T10:45:24.984Z,1000.30
2019-04-07T10:46:24.738Z,1000.33
2019-04-07T10:47:25.539Z,1000.31
2019-04-07T10:48:25.797Z,1000.27
2019-04-07T10:49:24.767Z,1000.29
2019-04-07T10:50:24.711Z,1000.26
2019-04-07T10:51:25.334Z,1000.27
2019-04-07T10:52:24.687Z,1000.27
2019-04-07T10:53:24.687Z,1000.21
2019-04-07T10:54:25.223Z,1000.21
2019-04-07T10:55:24.670Z,1000.27
2019-04-07T10:56:25.411Z,1000.26
2019-04-07T10:57:24.660Z,1000.22
2019-04-07T10:58:24.857Z,1000.23
2019-04-07T10:59:24.646Z,1000.21
2019-04-07T11:00:24.632Z,1000.19
2019-04-07T11:01:24.625Z,1000.19
2019-04-07T11:02:24.977Z,1000.25
2019-04-07T11:03:24.910Z,1000.21
2019-04-07T11:04:24.622Z,1000.14
2019-04-07T11:05:24.600Z,1000.18
2019-04-07T11:06:24.593Z,1000.20
2019-04-07T11:07:24.957Z,1000.17
2019-04-07T11:08:24.574Z,1000.15
2019-04-07T11:09:24.566Z,1000.16
2019-04-07T11:10:34.482Z,1000.19
2019-04-07T11:11:24.602Z,1000.20
2019-04-07T11:12:25.087Z,1000.13
2019-04-07T11:13:24.535Z,1000.07
2019-04-07T11:14:25.047Z,1000.12
2019-04-07T11:15:24.916Z,1000.13
2019-04-07T11:16:24.782Z,1000.18
2019-04-07T11:17:25.258Z,1000.04
2019-04-07T11:18:25.263Z,1000.07
2019-04-07T11:19:27.309Z,1000.15
2019-04-07T11:20:24.823Z,1000.09
2019-04-07T11:21:24.893Z,1000.05
2019-04-07T11:22:24.462Z,1000.05
2019-04-07T11:23:25.220Z,1000.06
2019-04-07T11:24:24.445Z,1000.13
2019-04-07T11:25:24.435Z,1000.10
2019-04-07T11:26:25.277Z,1000.02
2019-04-07T11:27:24.535Z,1000.09
2019-04-07T11:28:24.412Z,1000.04
2019-04-07T11:29:25.082Z,1000.05
2019-04-07T11:30:24.544Z,1000.16
2019-04-07T11:31:24.396Z,1000.05
2019-04-07T11:32:24.387Z,1000.08
2019-04-07T11:33:24.559Z,1000.11
2019-04-07T11:34:24.370Z,1000.14
2019-04-07T11:35:26.777Z,1000.12
2019-04-07T11:36:24.545Z,1000.09
2019-04-07T11:37:24.535Z,1000.10
2019-04-07T11:38:24.329Z,1000.12
2019-04-07T11:39:24.453Z,1000.02
2019-04-07T11:40:24.584Z,1000.01
2019-04-07T11:41:27.341Z,1000.02
2019-04-07T11:42:25.073Z,1000.12
2019-04-07T11:43:24.707Z,1000.12
2019-04-07T11:44:24.769Z,1000.06
2019-04-07T11:45:24.619Z,1000.14
2019-04-07T11:46:24.402Z,1000.11
2019-04-07T11:47:24.262Z,1000.09
2019-04-07T11:48:24.242Z,1000.05
2019-04-07T11:49:24.657Z,1000.14
2019-04-07T11:50:24.231Z,1000.14
2019-04-07T11:51:24.383Z,1000.11
2019-04-07T11:52:24.607Z,1000.06
2019-04-07T11:53:24.219Z,1000.06
2019-04-07T11:54:24.203Z,1000.04
2019-04-07T11:55:26.214Z,1000.05
2019-04-07T11:56:24.898Z,1000.09
2019-04-07T11:57:24.166Z,1000.14
2019-04-07T11:58:31.465Z,1000.13
2019-04-07T11:59:24.151Z,1000.12
2019-04-07T12:00:24.895Z,1000.11
2019-04-07T12:01:24.136Z,1000.20
2019-04-07T12:02:24.369Z,1000.14
2019-04-07T12:03:26.868Z,1000.09
2019-04-07T12:04:24.110Z,1000.14
2019-04-07T12:05:25.041Z,1000.10
2019-04-07T12:06:25.429Z,1000.11
2019-04-07T12:07:25.039Z,1000.11
2019-04-07T12:08:25.168Z,1000.07
2019-04-07T12:09:24.065Z,1000.09
2019-04-07T12:10:24.073Z,1000.13
2019-04-07T12:11:24.603Z,1000.04
2019-04-07T12:12:24.606Z,1000.06
2019-04-07T12:13:24.033Z,1000.07
2019-04-07T12:14:24.455Z,1000.11
2019-04-07T12:15:26.724Z,1000.05
2019-04-07T12:16:26.639Z,1000.08
2019-04-07T12:17:24.521Z,1000.05
2019-04-07T12:18:23.995Z,1000.05